Time;durP1;ratioP1;P1;durP2;ratioP2;P2;SDS_P1;SDS_P2;PMS_P1;PMS_P2;Temp;Humidity;BMP_temperature;BMP_pressure;BME280_temperature;BME280_humidity;BME280_pressure;Samples;Min_cycle;Max_cycle;Signal;HPM_P1;HPM_P2
2022/06/05 00:01:27;;;;;;;1.50;1.15;;;17.50;61.20;;;;;;4976239;28;20053;-76
2022/06/05 00:04:24;;;;;;;1.30;1.20;;;17.50;61.20;;;;;;4975796;28;20047;-77
2022/06/05 00:07:07;;;;;;;1.45;1.10;;;17.40;61.10;;;;;;4975980;28;20081;-75
2022/06/05 00:09:50;;;;;;;1.30;1.08;;;17.50;61.20;;;;;;4976213;28;20042;-75
2022/06/05 00:12:19;;;;;;;1.77;1.10;;;17.40;61.30;;;;;;4993402;28;20398;-76
2022/06/05 00:14:46;;;;;;;1.83;1.10;;;17.40;61.30;;;;;;4993492;28;20109;-76
2022/06/05 00:17:17;;;;;;;1.45;1.10;;;17.40;61.40;;;;;;4976009;28;20050;-76
2022/06/05 00:19:46;;;;;;;2.13;1.38;;;17.30;61.40;;;;;;4993926;28;20100;-76
2022/06/05 00:22:13;;;;;;;2.00;1.15;;;17.30;61.50;;;;;;4995214;28;20042;-76
2022/06/05 00:24:40;;;;;;;2.47;0.93;;;17.30;61.60;;;;;;4994577;28;20095;-76
2022/06/05 00:27:31;;;;;;;2.95;1.30;;;17.30;61.60;;;;;;4993946;28;20117;-76
2022/06/05 00:30:12;;;;;;;1.23;1.10;;;17.30;61.70;;;;;;4963557;28;20193;-77
2022/06/05 00:33:16;;;;;;;1.02;1.00;;;17.30;61.80;;;;;;4992712;28;20050;-76
2022/06/05 00:35:53;;;;;;;1.13;1.00;;;17.20;61.80;;;;;;4993103;28;20065;-75
2022/06/05 00:38:44;;;;;;;1.80;1.20;;;17.20;61.80;;;;;;4992353;28;20042;-75
2022/06/05 00:41:31;;;;;;;1.70;1.40;;;17.20;62.60;;;;;;4994941;28;20422;-79
2022/06/05 00:44:01;;;;;;;2.53;1.25;;;17.10;62.00;;;;;;4977629;28;20038;-75
2022/06/05 00:46:28;;;;;;;2.22;1.20;;;17.10;62.00;;;;;;4975330;28;20108;-76
2022/06/05 00:48:55;;;;;;;2.95;1.40;;;17.10;62.10;;;;;;4993091;28;20093;-76
2022/06/05 00:51:21;;;;;;;1.88;1.33;;;17.10;62.30;;;;;;4976735;28;20491;-76
2022/06/05 00:53:48;;;;;;;1.70;1.20;;;17.00;62.30;;;;;;4942959;28;20478;-77
2022/06/05 00:56:15;;;;;;;1.95;1.25;;;17.00;62.40;;;;;;4959568;28;20502;-75
2022/06/05 00:58:41;;;;;;;1.65;1.30;;;17.00;62.50;;;;;;4993056;28;20038;-76
2022/06/05 01:01:07;;;;;;;2.15;1.20;;;16.90;62.50;;;;;;4992532;28;20105;-77
2022/06/05 01:03:33;;;;;;;1.80;1.38;;;17.00;62.60;;;;;;4974478;28;20050;-76
2022/06/05 01:05:59;;;;;;;1.45;1.10;;;17.00;62.70;;;;;;4992124;28;20116;-75
2022/06/05 01:08:26;;;;;;;1.80;1.10;;;16.90;62.70;;;;;;4992372;28;20117;-76
2022/06/05 01:11:20;;;;;;;1.98;1.27;;;17.00;63.10;;;;;;4976556;28;20050;-76
2022/06/05 01:14:13;;;;;;;1.83;1.20;;;16.80;62.90;;;;;;4978129;28;20398;-75
2022/06/05 01:16:59;;;;;;;1.30;1.10;;;16.80;63.00;;;;;;4961312;28;20042;-76
2022/06/05 01:19:49;;;;;;;1.17;0.80;;;16.70;63.00;;;;;;4974971;28;20406;-76
2022/06/05 01:22:31;;;;;;;0.93;0.90;;;16.70;63.10;;;;;;4991954;28;20053;-76
2022/06/05 01:25:19;;;;;;;0.70;0.70;;;16.80;63.20;;;;;;4976584;28;20082;-74
2022/06/05 01:27:52;;;;;;;0.70;0.70;;;16.70;63.20;;;;;;4960427;28;20069;-77
2022/06/05 01:30:21;;;;;;;1.30;1.05;;;16.70;63.20;;;;;;4992457;28;20136;-78
2022/06/05 01:32:59;;;;;;;1.20;1.05;;;16.60;63.30;;;;;;4975002;28;20173;-76
2022/06/05 01:35:37;;;;;;;1.38;1.08;;;16.70;63.40;;;;;;4992054;28;20038;-76
2022/06/05 01:38:11;;;;;;;2.03;1.10;;;16.60;63.40;;;;;;4991686;28;20097;-77
2022/06/05 01:40:45;;;;;;;1.73;0.90;;;16.60;63.50;;;;;;4958431;28;20042;-77
2022/06/05 01:43:15;;;;;;;1.58;1.20;;;16.70;63.60;;;;;;4977385;28;20043;-76
2022/06/05 01:45:51;;;;;;;1.20;1.10;;;16.50;63.70;;;;;;4993810;28;20121;-77
2022/06/05 01:48:21;;;;;;;2.20;1.05;;;16.50;63.80;;;;;;4992853;28;20069;-77
2022/06/05 01:50:53;;;;;;;1.00;0.93;;;16.50;63.90;;;;;;4984054;28;20069;-77
2022/06/05 01:53:30;;;;;;;0.82;0.82;;;16.30;63.90;;;;;;4992073;28;20038;-77
2022/06/05 01:56:18;;;;;;;2.30;0.93;;;16.40;64.10;;;;;;4975492;28;20379;-76
2022/06/05 01:58:49;;;;;;;1.48;1.17;;;16.40;64.30;;;;;;4958527;28;20034;-76
2022/06/05 02:01:21;;;;;;;1.75;1.05;;;16.30;64.30;;;;;;4992226;28;20112;-76
2022/06/05 02:04:01;;;;;;;1.85;1.20;;;16.30;64.40;;;;;;4959007;28;20038;-76
2022/06/05 02:06:34;;;;;;;3.55;1.30;;;16.30;64.50;;;;;;4975529;28;20403;-76
2022/06/05 02:09:14;;;;;;;1.52;1.10;;;16.20;64.50;;;;;;4994993;28;20046;-77
2022/06/05 02:11:40;;;;;;;1.92;1.30;;;16.20;64.60;;;;;;4995380;28;20038;-76
2022/06/05 02:14:08;;;;;;;1.10;1.00;;;16.20;64.60;;;;;;4977374;28;20074;-76
2022/06/05 02:16:36;;;;;;;0.93;0.88;;;16.10;64.70;;;;;;4978124;28;20046;-77
2022/06/05 02:19:12;;;;;;;1.85;1.15;;;16.10;64.90;;;;;;4977467;28;20442;-76
2022/06/05 02:21:39;;;;;;;1.75;1.10;;;16.20;65.10;;;;;;4961559;28;20050;-76
2022/06/05 02:24:07;;;;;;;1.27;0.98;;;16.10;65.00;;;;;;4977640;28;20447;-76
2022/06/05 02:26:32;;;;;;;2.17;1.20;;;16.00;65.10;;;;;;4962316;28;20042;-76
2022/06/05 02:29:03;;;;;;;1.95;1.38;;;16.00;65.20;;;;;;4977729;28;20027;-77
2022/06/05 02:32:03;;;;;;;2.08;1.27;;;16.00;65.30;;;;;;4978270;28;20030;-77
2022/06/05 02:34:54;;;;;;;1.55;1.10;;;16.00;65.50;;;;;;4976970;28;20125;-76
2022/06/05 02:37:27;;;;;;;;;;;15.90;65.60;;;;;;4995117;28;20050;-76
2022/06/05 02:40:13;;;;;;;1.33;1.00;;;15.90;65.50;;;;;;4994370;28;20008;-76
2022/06/05 02:42:49;;;;;;;1.63;1.23;;;15.80;65.50;;;;;;4994364;28;20104;-76
2022/06/05 02:45:41;;;;;;;1.55;1.27;;;15.90;65.70;;;;;;4976964;28;20461;-76
2022/06/05 02:48:16;;;;;;;2.88;1.35;;;15.80;65.90;;;;;;4950338;28;20133;-77
2022/06/05 02:50:47;;;;;;;1.48;1.10;;;15.70;65.90;;;;;;4977787;28;20047;-77
2022/06/05 02:53:14;;;;;;;1.85;1.25;;;15.70;66.10;;;;;;4976996;28;20176;-77
2022/06/05 02:55:40;;;;;;;1.75;1.30;;;15.60;66.10;;;;;;4994244;28;20049;-77
2022/06/05 02:58:07;;;;;;;2.03;1.23;;;15.60;66.30;;;;;;4994670;28;20049;-77
2022/06/05 03:00:34;;;;;;;2.15;1.20;;;15.60;66.40;;;;;;4994565;28;20125;-77
2022/06/05 03:05:47;;;;;;;1.92;1.20;;;15.60;66.60;;;;;;4994293;28;20473;-77
2022/06/05 03:08:15;;;;;;;1.98;1.17;;;15.50;66.60;;;;;;4976836;28;20046;-77
2022/06/05 03:10:42;;;;;;;1.67;1.20;;;15.40;66.60;;;;;;4975863;28;20047;-77
2022/06/05 03:13:09;;;;;;;2.28;1.00;;;15.50;66.80;;;;;;4977314;28;20081;-77
2022/06/05 03:15:35;;;;;;;1.27;0.93;;;15.40;66.80;;;;;;4993797;28;20038;-77
2022/06/05 03:18:01;;;;;;;2.38;1.50;;;15.40;66.80;;;;;;4975317;28;20613;-77
2022/06/05 03:20:27;;;;;;;2.15;1.27;;;15.40;67.00;;;;;;4975645;28;20487;-77
2022/06/05 03:22:53;;;;;;;1.38;1.13;;;15.30;67.00;;;;;;4994909;28;20069;-77
2022/06/05 03:25:22;;;;;;;1.90;1.40;;;15.30;67.20;;;;;;4995004;28;20053;-76
2022/06/05 03:27:47;;;;;;;2.03;1.40;;;15.30;67.30;;;;;;4994865;28;20053;-77
2022/06/05 03:30:14;;;;;;;2.30;1.50;;;15.30;67.40;;;;;;4994246;28;20043;-77
2022/06/05 03:32:41;;;;;;;1.52;1.30;;;15.20;67.40;;;;;;4994280;28;20088;-77
2022/06/05 03:35:08;;;;;;;2.13;1.45;;;15.20;67.50;;;;;;4993870;28;20121;-77
2022/06/05 03:37:34;;;;;;;2.70;1.30;;;15.20;67.50;;;;;;4993866;28;20038;-78
2022/06/05 03:40:00;;;;;;;1.92;1.08;;;15.20;67.60;;;;;;4993886;28;20042;-78
2022/06/05 03:42:26;;;;;;;1.85;1.40;;;15.20;67.60;;;;;;4993692;28;20448;-77
2022/06/05 03:44:52;;;;;;;1.38;1.08;;;15.20;67.60;;;;;;4976359;28;20145;-77
2022/06/05 03:47:18;;;;;;;1.75;1.38;;;15.20;67.70;;;;;;4976353;28;20090;-77
2022/06/05 03:49:43;;;;;;;1.25;1.00;;;15.30;67.80;;;;;;4994000;28;20178;-77
2022/06/05 03:52:10;;;;;;;2.17;1.50;;;15.20;67.80;;;;;;4993866;28;20089;-77
2022/06/05 03:54:38;;;;;;;1.42;1.20;;;15.20;67.90;;;;;;4993658;28;20552;-77
2022/06/05 03:57:05;;;;;;;3.20;1.40;;;15.20;67.90;;;;;;4993975;28;20117;-77
2022/06/05 03:59:34;;;;;;;1.25;1.02;;;15.20;67.90;;;;;;4976136;28;20049;-77
2022/06/05 04:02:00;;;;;;;1.83;1.20;;;15.20;67.90;;;;;;4993191;28;20060;-76
2022/06/05 04:04:25;;;;;;;1.70;1.15;;;15.20;67.90;;;;;;4993725;28;20490;-76
2022/06/05 04:06:51;;;;;;;1.75;1.38;;;15.20;68.00;;;;;;4959841;28;20050;-76
2022/06/05 04:09:17;;;;;;;1.25;1.02;;;15.20;68.00;;;;;;4976270;28;20043;-76
2022/06/05 04:11:43;;;;;;;1.50;1.13;;;15.20;68.00;;;;;;4977368;28;20121;-77
2022/06/05 04:14:09;;;;;;;1.33;1.10;;;15.20;68.70;;;;;;4993104;28;20038;-76
2022/06/05 04:16:38;;;;;;;1.95;1.25;;;15.30;68.10;;;;;;4976405;28;20080;-76
2022/06/05 04:19:04;;;;;;;2.28;1.40;;;15.30;68.10;;;;;;4993589;28;20156;-77
2022/06/05 04:21:33;;;;;;;2.17;1.38;;;15.30;68.00;;;;;;4993998;28;20046;-77
2022/06/05 04:24:00;;;;;;;2.05;1.27;;;15.30;68.10;;;;;;4993286;28;20129;-76
2022/06/05 04:26:30;;;;;;;2.13;1.58;;;15.40;68.10;;;;;;4993215;28;20039;-77
2022/06/05 04:28:56;;;;;;;1.73;1.20;;;15.40;68.10;;;;;;4993536;28;20576;-77
2022/06/05 04:31:27;;;;;;;1.20;1.10;;;15.40;68.00;;;;;;4993080;28;20093;-77
2022/06/05 04:33:55;;;;;;;1.30;1.13;;;15.40;68.00;;;;;;4975444;28;20462;-76
2022/06/05 04:36:21;;;;;;;1.65;1.13;;;15.40;67.90;;;;;;4976263;28;20035;-77
2022/06/05 04:38:47;;;;;;;2.55;1.42;;;15.40;67.90;;;;;;4992891;28;20401;-76
2022/06/05 04:41:14;;;;;;;1.80;1.30;;;15.50;68.00;;;;;;4991472;28;20117;-77
2022/06/05 04:43:40;;;;;;;1.67;1.00;;;15.50;68.00;;;;;;4975549;28;20054;-77
2022/06/05 04:46:06;;;;;;;2.40;1.20;;;15.50;68.60;;;;;;4975680;28;20552;-77
2022/06/05 04:48:32;;;;;;;1.50;1.17;;;15.50;67.90;;;;;;4992748;28;20129;-76
2022/06/05 04:50:59;;;;;;;2.08;1.17;;;15.50;67.90;;;;;;4993236;28;20047;-76
2022/06/05 04:53:24;;;;;;;1.58;1.20;;;15.60;67.90;;;;;;4975313;28;20077;-76
2022/06/05 04:55:50;;;;;;;1.10;1.00;;;15.70;67.90;;;;;;4959379;28;20502;-77
2022/06/05 04:58:16;;;;;;;2.25;1.50;;;15.70;67.90;;;;;;4976207;28;20046;-77
2022/06/05 05:00:42;;;;;;;1.95;1.45;;;15.70;67.80;;;;;;4993622;28;20513;-76
2022/06/05 05:03:08;;;;;;;2.05;1.45;;;15.70;67.70;;;;;;4974224;28;20045;-77
2022/06/05 05:05:34;;;;;;;2.10;1.50;;;15.70;67.80;;;;;;4975012;28;20038;-77
2022/06/05 05:08:00;;;;;;;1.90;1.17;;;15.80;67.80;;;;;;4992632;28;20034;-77
2022/06/05 05:10:26;;;;;;;1.25;1.02;;;15.70;67.80;;;;;;4992284;28;20456;-77
2022/06/05 05:12:52;;;;;;;1.95;1.50;;;15.90;67.90;;;;;;4992296;28;20041;-76
2022/06/05 05:15:18;;;;;;;1.23;1.00;;;15.90;67.80;;;;;;4991917;28;20042;-76
2022/06/05 05:17:44;;;;;;;1.63;1.20;;;15.90;67.80;;;;;;4992784;28;20042;-77
2022/06/05 05:20:12;;;;;;;1.42;1.20;;;15.80;67.80;;;;;;4975129;28;20047;-77
2022/06/05 05:22:38;;;;;;;1.90;1.23;;;15.90;67.80;;;;;;4958064;28;20079;-77
2022/06/05 05:25:07;;;;;;;1.42;1.20;;;15.90;67.80;;;;;;4992355;28;20034;-76
2022/06/05 05:27:34;;;;;;;1.95;1.30;;;15.90;67.80;;;;;;4973336;28;20050;-76
2022/06/05 05:30:00;;;;;;;2.08;1.33;;;16.00;67.90;;;;;;4975842;28;20126;-76
2022/06/05 05:32:26;;;;;;;1.40;1.23;;;15.90;67.90;;;;;;4975683;28;20042;-77
2022/06/05 05:34:52;;;;;;;1.95;1.20;;;15.90;68.00;;;;;;4974765;28;20103;-78
2022/06/05 05:37:17;;;;;;;1.65;1.17;;;16.00;68.10;;;;;;4992364;28;20054;-76
2022/06/05 05:42:30;;;;;;;1.60;1.20;;;16.00;68.00;;;;;;4979266;28;20054;-77
2022/06/05 05:44:57;;;;;;;1.80;1.40;;;16.00;68.10;;;;;;4995752;28;20057;-77
2022/06/05 05:47:25;;;;;;;1.42;1.30;;;16.10;68.10;;;;;;4996070;28;20046;-77
2022/06/05 05:49:53;;;;;;;2.15;1.40;;;16.00;68.10;;;;;;4976402;28;20506;-77
2022/06/05 05:52:19;;;;;;;1.77;1.20;;;16.10;68.20;;;;;;4978648;28;20038;-77
2022/06/05 05:54:45;;;;;;;1.10;1.00;;;16.00;68.10;;;;;;4995977;28;20038;-78
2022/06/05 05:57:10;;;;;;;2.10;1.38;;;16.10;68.20;;;;;;4977914;28;20130;-77
2022/06/05 05:59:37;;;;;;;2.20;1.15;;;16.10;68.20;;;;;;4978144;28;20502;-78
2022/06/05 06:02:06;;;;;;;1.58;1.20;;;16.10;68.30;;;;;;4995742;28;20383;-77
2022/06/05 06:04:31;;;;;;;1.30;1.20;;;16.10;68.30;;;;;;4978281;28;20133;-77
2022/06/05 06:06:58;;;;;;;1.70;1.10;;;16.10;68.30;;;;;;4995610;28;20137;-77
2022/06/05 06:09:24;;;;;;;1.83;1.30;;;16.20;68.40;;;;;;4995227;28;20070;-77
2022/06/05 06:11:49;;;;;;;2.13;1.20;;;16.10;68.30;;;;;;4995257;28;20053;-77
2022/06/05 06:14:15;;;;;;;1.42;0.90;;;16.10;68.30;;;;;;4962101;28;20045;-77
2022/06/05 06:16:41;;;;;;;1.67;1.20;;;16.20;68.40;;;;;;4995549;28;20038;-77
2022/06/05 06:19:06;;;;;;;1.10;1.00;;;16.20;68.40;;;;;;4978189;28;20490;-77
2022/06/05 06:21:33;;;;;;;1.30;1.20;;;16.20;68.40;;;;;;4995036;28;20042;-77
2022/06/05 06:23:59;;;;;;;1.48;1.20;;;16.20;68.40;;;;;;4995366;28;20449;-78
2022/06/05 06:26:25;;;;;;;2.25;1.48;;;16.20;68.30;;;;;;4995258;28;20030;-77
2022/06/05 06:28:51;;;;;;;1.90;1.40;;;16.30;68.40;;;;;;4977212;28;20513;-77
2022/06/05 06:31:17;;;;;;;1.15;1.00;;;16.30;68.30;;;;;;4994968;28;20054;-77
2022/06/05 06:33:45;;;;;;;1.70;1.30;;;16.40;68.30;;;;;;4995158;28;20045;-77
2022/06/05 06:36:13;;;;;;;1.95;1.30;;;16.40;68.20;;;;;;4978793;28;20034;-76
2022/06/05 06:38:41;;;;;;;1.83;1.17;;;16.50;68.20;;;;;;4999129;28;20043;-76
2022/06/05 06:41:11;;;;;;;1.20;1.10;;;16.50;68.10;;;;;;5000672;28;20054;-75
2022/06/05 06:43:38;;;;;;;0.82;0.80;;;16.50;68.00;;;;;;4996228;28;20039;-76
2022/06/05 06:46:04;;;;;;;1.52;1.10;;;16.60;67.90;;;;;;4995626;28;20038;-75
2022/06/05 06:48:30;;;;;;;1.05;0.90;;;16.60;67.80;;;;;;4998957;28;20034;-77
2022/06/05 06:50:58;;;;;;;1.52;1.13;;;16.70;67.80;;;;;;4983447;28;20068;-77
2022/06/05 06:53:26;;;;;;;1.35;1.08;;;16.70;67.70;;;;;;4999526;28;20479;-76
2022/06/05 06:55:52;;;;;;;1.90;1.20;;;16.80;67.70;;;;;;4983489;28;20509;-77
2022/06/05 06:58:18;;;;;;;1.90;1.25;;;16.90;67.60;;;;;;4998538;28;20162;-76
2022/06/05 07:00:44;;;;;;;1.17;1.02;;;16.90;67.50;;;;;;4997986;28;20034;-76
2022/06/05 07:03:11;;;;;;;2.35;1.40;;;17.00;67.50;;;;;;4997502;28;20093;-75
2022/06/05 07:05:38;;;;;;;2.35;1.45;;;17.10;67.50;;;;;;4963588;28;20054;-76
2022/06/05 07:08:04;;;;;;;1.45;1.30;;;17.10;67.30;;;;;;4946473;28;20410;-76
2022/06/05 07:10:30;;;;;;;2.15;1.38;;;17.20;67.20;;;;;;4978603;28;20407;-76
2022/06/05 07:12:56;;;;;;;2.42;1.52;;;17.40;67.10;;;;;;4978069;28;20042;-75
2022/06/05 07:15:23;;;;;;;1.20;1.10;;;17.40;66.90;;;;;;4994394;28;20038;-75
2022/06/05 07:17:49;;;;;;;1.70;1.30;;;17.60;66.80;;;;;;4961403;28;20047;-75
2022/06/05 07:20:15;;;;;;;1.30;1.20;;;17.70;66.60;;;;;;4995021;28;20398;-75
2022/06/05 07:22:41;;;;;;;1.35;1.10;;;17.80;66.40;;;;;;4995232;28;20043;-75
2022/06/05 07:25:07;;;;;;;1.50;1.15;;;17.90;66.30;;;;;;4993981;28;20125;-75
2022/06/05 07:27:33;;;;;;;1.60;1.40;;;18.00;66.10;;;;;;4994658;28;20111;-76
2022/06/05 07:29:59;;;;;;;2.35;1.70;;;18.20;65.90;;;;;;4977658;28;20510;-75
2022/06/05 07:32:25;;;;;;;1.48;1.27;;;18.20;65.80;;;;;;4993848;28;20069;-76
2022/06/05 07:34:51;;;;;;;1.60;1.20;;;18.30;65.70;;;;;;4960230;28;20491;-75
2022/06/05 07:37:18;;;;;;;1.90;1.30;;;18.40;65.60;;;;;;4944404;28;20042;-76
2022/06/05 07:39:44;;;;;;;2.10;1.63;;;18.50;65.60;;;;;;4976177;28;20038;-77
2022/06/05 07:42:11;;;;;;;1.33;1.23;;;18.60;65.50;;;;;;4993954;28;20061;-77
2022/06/05 07:44:36;;;;;;;1.70;1.20;;;18.80;65.50;;;;;;4976281;28;20402;-76
2022/06/05 07:47:07;;;;;;;1.40;1.20;;;18.80;65.40;;;;;;4993887;28;20049;-77
2022/06/05 07:49:34;;;;;;;1.63;1.25;;;18.70;65.20;;;;;;4976365;28;20402;-76
2022/06/05 07:54:38;;;;;;;1.17;1.08;;;18.90;65.20;;;;;;4993572;28;20065;-75
2022/06/05 07:57:08;;;;;;;1.40;1.20;;;19.00;65.20;;;;;;4959807;28;20042;-76
2022/06/05 07:59:38;;;;;;;1.33;1.20;;;19.10;65.30;;;;;;4975822;28;20042;-75
2022/06/05 08:02:07;;;;;;;1.20;1.10;;;19.20;64.90;;;;;;4993706;28;20050;-77
2022/06/05 08:04:35;;;;;;;1.60;1.20;;;19.40;64.70;;;;;;4992851;28;20483;-76
2022/06/05 08:07:02;;;;;;;2.17;1.40;;;19.60;64.50;;;;;;4959846;28;20410;-77
2022/06/05 08:09:29;;;;;;;1.55;1.30;;;19.70;64.20;;;;;;4993028;28;20050;-77
2022/06/05 08:11:55;;;;;;;1.90;1.40;;;19.80;64.00;;;;;;4993359;28;20129;-77
2022/06/05 08:14:21;;;;;;;2.90;1.55;;;20.00;63.80;;;;;;4993572;28;20039;-74
2022/06/05 08:16:47;;;;;;;1.70;1.20;;;20.10;63.60;;;;;;4975986;28;20055;-77
2022/06/05 08:19:18;;;;;;;1.45;1.35;;;20.30;63.50;;;;;;4993538;28;20070;-76
2022/06/05 08:21:45;;;;;;;1.85;1.30;;;20.40;63.40;;;;;;4993495;28;20049;-77
2022/06/05 08:24:11;;;;;;;1.10;1.00;;;20.50;63.30;;;;;;4993470;28;20046;-76
2022/06/05 08:26:38;;;;;;;1.77;1.20;;;20.60;63.20;;;;;;4975709;28;20030;-76
2022/06/05 08:29:04;;;;;;;1.40;1.30;;;20.60;63.10;;;;;;4959623;28;20101;-76
2022/06/05 08:31:30;;;;;;;1.83;1.48;;;20.70;63.10;;;;;;4993677;28;20034;-74
2022/06/05 08:33:58;;;;;;;1.75;1.40;;;20.80;63.00;;;;;;4993400;28;20066;-74
2022/06/05 08:36:24;;;;;;;2.15;1.42;;;20.80;63.00;;;;;;4992794;28;20042;-75
2022/06/05 08:41:58;;;;;;;1.50;1.30;;;21.00;62.90;;;;;;4963272;28;20414;-77
2022/06/05 08:44:40;;;;;;;1.40;1.30;;;21.10;62.80;;;;;;4992929;28;20046;-76
2022/06/05 08:47:29;;;;;;;3.50;1.60;;;21.30;62.70;;;;;;4992664;28;20071;-77
2022/06/05 08:50:17;;;;;;;1.35;1.17;;;21.40;62.50;;;;;;4992557;28;20491;-76
2022/06/05 08:52:51;;;;;;;1.10;1.00;;;21.60;62.30;;;;;;4992599;28;20038;-75
2022/06/05 08:55:37;;;;;;;1.33;1.23;;;21.80;61.90;;;;;;4974452;28;20557;-77
2022/06/05 08:58:14;;;;;;;1.42;1.00;;;22.00;61.70;;;;;;4993112;28;20137;-76
2022/06/05 09:00:47;;;;;;;1.95;1.50;;;22.30;61.60;;;;;;4959097;28;20038;-77
2022/06/05 09:03:40;;;;;;;4.30;1.50;;;22.40;61.20;;;;;;4983882;28;20120;-76
2022/06/05 09:06:12;;;;;;;1.98;1.20;;;22.40;61.20;;;;;;4970110;28;20153;-79
2022/06/05 09:08:41;;;;;;;1.35;1.25;;;22.50;61.40;;;;;;4999044;28;20046;-79
2022/06/05 09:11:20;;;;;;;1.55;1.08;;;22.50;61.50;;;;;;4993576;28;20054;-78
2022/06/05 09:14:05;;;;;;;1.73;1.33;;;22.70;61.40;;;;;;4994106;28;20046;-76
2022/06/05 09:16:33;;;;;;;1.73;1.42;;;22.90;61.20;;;;;;4993896;28;20046;-77
2022/06/05 09:18:59;;;;;;;1.50;1.17;;;22.90;61.00;;;;;;4993785;28;20039;-78
2022/06/05 09:21:31;;;;;;;1.23;1.10;;;23.10;61.10;;;;;;4975882;28;20117;-78
2022/06/05 09:24:31;;;;;;;2.95;1.30;;;23.20;61.00;;;;;;4977237;28;20490;-78
2022/06/05 09:27:08;;;;;;;1.70;1.40;;;23.30;60.70;;;;;;4975768;28;20513;-78
2022/06/05 09:29:45;;;;;;;1.48;1.38;;;23.40;60.50;;;;;;4992155;28;20038;-77
2022/06/05 09:32:40;;;;;;;1.38;1.23;;;23.50;60.70;;;;;;4961969;28;20487;-78
2022/06/05 09:35:20;;;;;;;1.60;1.38;;;23.50;60.80;;;;;;4974187;28;20046;-77
2022/06/05 09:37:58;;;;;;;1.10;1.00;;;23.60;60.80;;;;;;4975962;28;20042;-77
2022/06/05 09:40:30;;;;;;;0.93;0.90;;;23.70;60.80;;;;;;4993779;28;20059;-79
2022/06/05 09:43:16;;;;;;;1.05;1.05;;;23.70;60.80;;;;;;4992498;28;20039;-78
2022/06/05 09:45:54;;;;;;;0.90;0.90;;;23.80;60.80;;;;;;4959614;28;20403;-76
2022/06/05 09:48:36;;;;;;;1.00;0.82;;;23.90;60.80;;;;;;4994405;28;20050;-77
2022/06/05 09:51:06;;;;;;;3.10;1.23;;;24.00;60.90;;;;;;4994347;28;20109;-76
2022/06/05 09:53:42;;;;;;;0.90;0.90;;;24.00;60.80;;;;;;4993144;28;20129;-77
2022/06/05 09:56:34;;;;;;;0.90;0.90;;;24.00;60.80;;;;;;4957556;28;20065;-77
2022/06/05 09:59:25;;;;;;;1.20;1.10;;;24.20;60.90;;;;;;4976393;28;20061;-79
2022/06/05 10:01:55;;;;;;;1.20;1.10;;;24.00;60.80;;;;;;4975744;28;20042;-79
2022/06/05 10:04:31;;;;;;;0.98;0.98;;;24.10;60.90;;;;;;4960697;28;20066;-79
2022/06/05 10:07:06;;;;;;;1.20;1.10;;;24.10;61.00;;;;;;4918706;29;20154;-79
2022/06/05 10:09:34;;;;;;;1.10;1.00;;;24.10;61.10;;;;;;4934372;29;20158;-80
2022/06/05 10:12:06;;;;;;;1.05;1.00;;;24.00;61.10;;;;;;4916775;29;20060;-80
2022/06/05 10:14:59;;;;;;;1.10;1.00;;;24.00;61.20;;;;;;4916768;29;20044;-81
2022/06/05 10:17:48;;;;;;;0.90;0.90;;;24.00;61.20;;;;;;4921505;29;20054;-77
2022/06/05 10:20:40;;;;;;;0.80;0.80;;;23.90;61.20;;;;;;4919109;29;20098;-78
2022/06/05 10:23:36;;;;;;;1.20;1.10;;;24.00;61.30;;;;;;4937182;29;20047;-77
2022/06/05 10:26:22;;;;;;;1.33;1.00;;;24.00;61.40;;;;;;4934101;29;20048;-76
2022/06/05 10:28:53;;;;;;;1.02;1.00;;;23.90;61.40;;;;;;4924723;29;20074;-79
2022/06/05 10:31:30;;;;;;;1.02;0.90;;;23.80;61.50;;;;;;4955978;29;20056;-79
2022/06/05 10:34:11;;;;;;;0.88;0.88;;;23.80;61.60;;;;;;4933449;29;20052;-79
2022/06/05 10:37:12;;;;;;;1.25;1.15;;;23.80;61.70;;;;;;4936457;28;20069;-77
2022/06/05 10:40:12;;;;;;;1.05;0.95;;;23.80;61.70;;;;;;5009761;28;20065;-76
2022/06/05 10:42:52;;;;;;;1.02;0.93;;;23.80;61.70;;;;;;4966532;28;20425;-78
2022/06/05 10:45:39;;;;;;;1.20;0.90;;;23.70;61.80;;;;;;4963285;28;20034;-78
2022/06/05 10:48:34;;;;;;;0.93;0.93;;;23.70;61.80;;;;;;5175010;23;20053;-76
2022/06/05 10:51:32;;;;;;;0.82;0.82;;;23.60;61.80;;;;;;5024141;28;20046;-75
2022/06/05 10:54:25;;;;;;;0.90;0.90;;;23.60;61.80;;;;;;5004485;28;20103;-75
2022/06/05 10:57:11;;;;;;;1.20;1.10;;;23.60;61.90;;;;;;4986488;28;20045;-78
2022/06/05 10:59:59;;;;;;;0.93;0.90;;;23.60;61.90;;;;;;4997161;28;20042;-76
2022/06/05 11:02:51;;;;;;;2.38;1.10;;;23.60;61.90;;;;;;4980931;28;20404;-75
2022/06/05 11:05:31;;;;;;;1.10;1.00;;;23.60;61.80;;;;;;5002358;28;20037;-76
2022/06/05 11:08:26;;;;;;;0.98;0.98;;;23.50;61.80;;;;;;4996683;28;20052;-76
2022/06/05 11:14:27;;;;;;;0.80;0.80;;;23.50;61.90;;;;;;5016176;28;20058;-76
2022/06/05 11:17:24;;;;;;;0.90;0.90;;;23.50;62.00;;;;;;4984557;28;20038;-76
2022/06/05 11:20:17;;;;;;;0.77;0.77;;;23.40;62.00;;;;;;5014718;28;20046;-75
2022/06/05 11:23:04;;;;;;;1.30;1.20;;;23.40;62.00;;;;;;5013966;28;20070;-76
2022/06/05 11:26:05;;;;;;;1.40;1.02;;;23.30;62.00;;;;;;5022020;28;20136;-78
2022/06/05 11:29:00;;;;;;;1.20;1.10;;;23.20;62.10;;;;;;4996643;28;20054;-76
2022/06/05 11:31:42;;;;;;;0.80;0.80;;;23.20;62.20;;;;;;5001295;28;20061;-77
2022/06/05 11:34:47;;;;;;;1.10;1.00;;;23.20;62.20;;;;;;5006501;28;20038;-76
2022/06/05 11:37:38;;;;;;;1.20;1.10;;;23.20;62.30;;;;;;5022073;28;20042;-77
2022/06/05 11:40:27;;;;;;;1.13;1.08;;;23.10;62.30;;;;;;5030613;28;20049;-77
2022/06/05 11:43:17;;;;;;;1.00;1.00;;;23.10;62.40;;;;;;5022830;28;20046;-76
2022/06/05 11:46:03;;;;;;;0.90;0.90;;;23.10;62.50;;;;;;5024192;28;20403;-76
2022/06/05 11:48:46;;;;;;;0.95;0.95;;;23.10;62.40;;;;;;5024213;28;20073;-77
2022/06/05 11:51:24;;;;;;;1.08;0.98;;;23.00;62.40;;;;;;5026723;28;20026;-78
2022/06/05 11:54:08;;;;;;;0.88;0.88;;;23.00;62.40;;;;;;4996185;28;20018;-77
2022/06/05 11:57:07;;;;;;;0.80;0.80;;;23.00;62.50;;;;;;5014970;28;20045;-76
2022/06/05 12:00:01;;;;;;;0.70;0.70;;;23.00;62.60;;;;;;4987774;28;20070;-76
2022/06/05 12:02:48;;;;;;;0.80;0.80;;;22.90;62.70;;;;;;4977909;28;20048;-77
2022/06/05 12:05:36;;;;;;;1.05;0.95;;;22.80;62.90;;;;;;5013193;28;20061;-76
2022/06/05 12:08:08;;;;;;;0.68;0.68;;;22.70;63.20;;;;;;5013143;28;20208;-76
2022/06/05 12:10:47;;;;;;;1.13;1.02;;;22.50;63.40;;;;;;4996326;28;20548;-79
2022/06/05 12:13:36;;;;;;;0.98;0.93;;;22.50;63.70;;;;;;4993812;28;20127;-75
2022/06/05 12:16:09;;;;;;;0.88;0.88;;;22.40;63.90;;;;;;5012842;28;20112;-77
2022/06/05 12:18:59;;;;;;;1.20;1.10;;;22.40;64.00;;;;;;4995162;28;20456;-78
2022/06/05 12:21:33;;;;;;;1.42;1.33;;;22.30;64.50;;;;;;4995211;28;20038;-75
2022/06/05 12:24:23;;;;;;;1.17;1.10;;;22.20;64.90;;;;;;5012902;28;20041;-76
2022/06/05 12:26:56;;;;;;;0.80;0.80;;;22.10;65.30;;;;;;4983623;28;20131;-77
2022/06/05 12:29:41;;;;;;;1.30;1.20;;;21.90;65.60;;;;;;4979353;28;20060;-75
2022/06/05 12:32:13;;;;;;;1.20;1.10;;;21.80;66.10;;;;;;4995290;28;20077;-80
2022/06/05 12:34:50;;;;;;;1.10;1.00;;;21.70;66.30;;;;;;4979219;28;20041;-79
2022/06/05 12:37:23;;;;;;;1.08;1.05;;;21.70;66.60;;;;;;4995150;28;20512;-81
2022/06/05 12:39:55;;;;;;;1.30;1.17;;;21.60;66.70;;;;;;4979092;28;20049;-80
2022/06/05 12:42:48;;;;;;;1.30;1.20;;;21.60;67.00;;;;;;5012299;28;20450;-81
2022/06/05 12:45:31;;;;;;;1.83;1.40;;;21.40;67.20;;;;;;4981938;28;20133;-82
2022/06/05 12:48:21;;;;;;;1.40;1.17;;;21.40;67.40;;;;;;4995394;28;20034;-82
2022/06/05 12:51:01;;;;;;;2.50;1.30;;;21.40;67.60;;;;;;4995127;28;20454;-80
2022/06/05 12:53:43;;;;;;;1.60;1.50;;;21.40;67.80;;;;;;4994421;28;20052;-79
2022/06/05 12:56:33;;;;;;;1.48;1.30;;;21.30;68.00;;;;;;4965374;28;20882;-79
2022/06/05 12:59:12;;;;;;;1.60;1.42;;;21.20;68.20;;;;;;5012863;28;20045;-79
2022/06/05 13:01:50;;;;;;;1.40;1.30;;;21.20;68.40;;;;;;4993244;28;20038;-79
2022/06/05 13:04:32;;;;;;;1.50;1.40;;;21.20;68.60;;;;;;4994900;28;20041;-77
2022/06/05 13:07:22;;;;;;;1.50;1.40;;;21.10;68.60;;;;;;5012130;28;20497;-77
2022/06/05 13:09:55;;;;;;;1.30;1.20;;;21.10;68.80;;;;;;5013133;28;20041;-78
2022/06/05 13:12:30;;;;;;;1.67;1.40;;;21.00;68.80;;;;;;5018884;28;20033;-77
2022/06/05 13:15:12;;;;;;;1.35;1.25;;;21.10;68.90;;;;;;5004997;28;20140;-76
2022/06/05 13:17:46;;;;;;;1.42;1.33;;;21.10;69.00;;;;;;4994694;28;20040;-78
2022/06/05 13:20:24;;;;;;;1.40;1.30;;;21.10;69.10;;;;;;4993786;28;20042;-77
2022/06/05 13:23:23;;;;;;;1.70;1.35;;;21.00;69.20;;;;;;5013240;28;20548;-76
2022/06/05 13:25:59;;;;;;;1.40;1.30;;;21.00;69.30;;;;;;5019709;28;20042;-75
2022/06/05 13:28:49;;;;;;;2.08;1.45;;;21.00;69.30;;;;;;5011905;28;20390;-75
2022/06/05 13:31:41;;;;;;;1.30;1.20;;;21.00;69.50;;;;;;4994360;28;20508;-76
2022/06/05 13:34:22;;;;;;;1.70;1.30;;;21.00;69.70;;;;;;5014329;28;20104;-79
2022/06/05 13:36:57;;;;;;;1.35;1.25;;;20.90;69.80;;;;;;4979593;28;20038;-79
2022/06/05 13:39:33;;;;;;;1.60;1.40;;;21.00;69.90;;;;;;4995175;28;20042;-78